Time;durP1;ratioP1;P1;durP2;ratioP2;P2;SDS_P1;SDS_P2;PMS_P1;PMS_P2;Temp;Humidity;BMP_temperature;BMP_pressure;BME280_temperature;BME280_humidity;BME280_pressure;Samples;Min_cycle;Max_cycle;Signal;HPM_P1;HPM_P2
2024/01/25 00:02:27;;;;;;;0.20;0.20;;;;;;;5.41;100.00;97507.88;5032013;28;20048;-76
2024/01/25 00:05:13;;;;;;;0.30;0.30;;;;;;;5.43;100.00;97489.91;5024475;28;20075;-77
2024/01/25 00:07:59;;;;;;;0.10;0.10;;;;;;;5.35;100.00;97484.75;5036812;28;20037;-73
2024/01/25 00:10:45;;;;;;;0.20;0.20;;;;;;;5.37;100.00;97477.41;5033534;28;20064;-75
2024/01/25 00:13:30;;;;;;;0.20;0.20;;;;;;;5.38;100.00;97487.84;5034156;28;20090;-74
2024/01/25 00:16:16;;;;;;;0.20;0.20;;;;;;;5.39;100.00;97486.03;5022748;28;20029;-73
2024/01/25 00:19:02;;;;;;;0.10;0.10;;;;;;;5.37;100.00;97469.44;5033176;28;20049;-73
2024/01/25 00:21:48;;;;;;;0.20;0.20;;;;;;;5.40;100.00;97479.69;5037428;28;20667;-75
2024/01/25 00:24:34;;;;;;;0.20;0.20;;;;;;;5.39;100.00;97486.84;5035496;28;20132;-74
2024/01/25 00:27:20;;;;;;;0.20;0.20;;;;;;;5.39;100.00;97489.50;5003941;28;20040;-75
2024/01/25 00:30:06;;;;;;;0.20;0.20;;;;;;;5.39;100.00;97486.03;5023850;28;20106;-75
2024/01/25 00:32:52;;;;;;;0.20;0.20;;;;;;;5.38;100.00;97485.19;5031829;28;20357;-73
2024/01/25 00:35:38;;;;;;;0.20;0.20;;;;;;;5.36;100.00;97483.72;5037233;28;20049;-72
2024/01/25 00:38:26;;;;;;;0.20;0.20;;;;;;;5.39;100.00;97488.66;5035534;28;20123;-74
2024/01/25 00:41:17;;;;;;;0.20;0.20;;;;;;;5.37;100.00;97480.91;5035682;28;20564;-73
2024/01/25 00:44:03;;;;;;;0.20;0.20;;;;;;;5.36;100.00;97489.84;5033498;28;20145;-72
2024/01/25 00:46:50;;;;;;;0.20;0.20;;;;;;;5.38;100.00;97492.34;5033164;28;20064;-74
2024/01/25 00:49:37;;;;;;;0.20;0.20;;;;;;;5.33;100.00;97482.28;5033987;28;20041;-75
2024/01/25 00:52:23;;;;;;;0.20;0.20;;;;;;;5.33;100.00;97487.59;5034396;28;20037;-74
2024/01/25 00:55:10;;;;;;;0.20;0.20;;;;;;;5.31;100.00;97487.78;5036109;28;20037;-73
2024/01/25 00:57:56;;;;;;;0.15;0.15;;;;;;;5.24;100.00;97486.91;5033998;28;20048;-73
2024/01/25 01:00:43;;;;;;;0.20;0.20;;;;;;;5.31;100.00;97505.53;5007237;28;20562;-76
2024/01/25 01:03:30;;;;;;;0.30;0.30;;;;;;;5.32;100.00;97491.25;5005172;28;20048;-73
2024/01/25 01:06:16;;;;;;;0.20;0.20;;;;;;;5.32;100.00;97496.56;5004444;28;20219;-72
2024/01/25 01:09:02;;;;;;;0.20;0.20;;;;;;;5.32;100.00;97512.50;5004198;28;20628;-73
2024/01/25 01:11:47;;;;;;;0.10;0.10;;;;;;;5.32;100.00;97500.03;4996713;28;20041;-71
2024/01/25 01:14:34;;;;;;;0.20;0.20;;;;;;;5.25;100.00;97501.00;5003498;28;20069;-73
2024/01/25 01:17:20;;;;;;;0.20;0.20;;;;;;;5.30;100.00;97506.56;5005917;28;20149;-72
2024/01/25 01:20:06;;;;;;;0.20;0.20;;;;;;;5.28;100.00;97505.91;5003753;28;20620;-75
2024/01/25 01:22:52;;;;;;;0.20;0.20;;;;;;;5.29;100.00;97508.41;5004131;28;20085;-74
2024/01/25 01:25:38;;;;;;;0.25;0.25;;;;;;;5.27;100.00;97513.03;5014661;28;20121;-75
2024/01/25 01:28:24;;;;;;;0.20;0.20;;;;;;;5.28;100.00;97514.69;5005115;28;20037;-74
2024/01/25 01:31:10;;;;;;;0.20;0.20;;;;;;;5.29;100.00;97512.84;5002219;28;20053;-73
2024/01/25 01:33:55;;;;;;;0.20;0.20;;;;;;;5.25;100.00;97496.50;5002954;28;20053;-73
2024/01/25 01:36:41;;;;;;;0.20;0.20;;;;;;;5.26;100.00;97514.06;5003061;28;20760;-75
2024/01/25 01:39:30;;;;;;;0.13;0.13;;;;;;;5.29;100.00;97524.31;5003735;28;20548;-73
2024/01/25 01:42:15;;;;;;;0.20;0.20;;;;;;;5.25;100.00;97528.34;5003231;28;20618;-73
2024/01/25 01:45:01;;;;;;;0.20;0.20;;;;;;;5.23;100.00;97509.16;5003261;28;20239;-72
2024/01/25 01:47:47;;;;;;;0.38;0.30;;;;;;;5.23;100.00;97516.28;5006625;28;20049;-75
2024/01/25 01:50:33;;;;;;;0.20;0.20;;;;;;;5.22;100.00;97523.44;5006401;28;20525;-73
2024/01/25 01:53:19;;;;;;;0.20;0.20;;;;;;;5.23;100.00;97529.56;5004882;28;20302;-73
2024/01/25 01:56:06;;;;;;;0.20;0.20;;;;;;;5.21;100.00;97512.97;4995613;28;20289;-73
2024/01/25 01:58:55;;;;;;;0.20;0.20;;;;;;;5.19;100.00;97513.16;5002096;28;20286;-73
2024/01/25 02:01:41;;;;;;;0.20;0.20;;;;;;;5.17;100.00;97520.50;5023499;28;20060;-76
2024/01/25 02:04:27;;;;;;;0.20;0.20;;;;;;;5.15;100.00;97519.88;5022906;28;20044;-74
2024/01/25 02:07:14;;;;;;;0.20;0.20;;;;;;;5.09;100.00;97510.00;5038795;28;20044;-76
2024/01/25 02:10:03;;;;;;;0.20;0.20;;;;;;;5.13;100.00;97537.81;5029208;28;20057;-73
2024/01/25 02:12:48;;;;;;;0.20;0.20;;;;;;;5.10;100.00;97530.22;5031959;28;20048;-73
2024/01/25 02:15:37;;;;;;;0.13;0.13;;;;;;;5.11;100.00;97531.88;5033973;28;20045;-76
2024/01/25 02:18:23;;;;;;;0.20;0.20;;;;;;;5.09;100.00;97533.06;5034986;28;20505;-75
2024/01/25 02:21:09;;;;;;;0.20;0.20;;;;;;;5.11;100.00;97531.03;5031570;28;20045;-74
2024/01/25 02:23:55;;;;;;;0.20;0.20;;;;;;;5.08;100.00;97534.91;5026409;28;20096;-76
2024/01/25 02:26:41;;;;;;;0.20;0.20;;;;;;;5.07;100.00;97554.50;5031318;28;20060;-77
2024/01/25 02:29:26;;;;;;;0.20;0.20;;;;;;;5.02;100.00;97540.94;5036246;28;20726;-74
2024/01/25 02:32:12;;;;;;;0.20;0.20;;;;;;;4.97;100.00;97532.72;5031800;28;20139;-73
2024/01/25 02:34:58;;;;;;;0.30;0.30;;;;;;;5.00;100.00;97541.16;5032369;28;20044;-74
2024/01/25 02:37:44;;;;;;;0.20;0.20;;;;;;;4.99;100.00;97539.50;5027617;28;20127;-75
2024/01/25 02:40:30;;;;;;;0.20;0.20;;;;;;;4.99;100.00;97544.00;5032847;28;20124;-76
2024/01/25 02:43:16;;;;;;;0.20;0.20;;;;;;;5.01;100.00;97550.75;5035397;28;20041;-73
2024/01/25 02:46:01;;;;;;;0.20;0.20;;;;;;;4.89;100.00;97541.59;5035454;28;20049;-75
2024/01/25 02:48:48;;;;;;;0.20;0.20;;;;;;;4.91;100.00;97552.06;5032818;28;20120;-73
2024/01/25 02:51:33;;;;;;;0.20;0.20;;;;;;;4.88;100.00;97545.28;5033848;28;20044;-73
2024/01/25 02:54:19;;;;;;;0.20;0.20;;;;;;;4.80;100.00;97533.97;5033319;28;20102;-76
2024/01/25 02:57:05;;;;;;;0.20;0.20;;;;;;;4.85;100.00;97550.97;5036612;28;20381;-74
2024/01/25 02:59:51;;;;;;;0.20;0.20;;;;;;;4.86;100.00;97549.94;5033988;28;20124;-74
2024/01/25 03:02:40;;;;;;;0.20;0.20;;;;;;;4.87;100.00;97550.78;5039266;28;20246;-75
2024/01/25 03:05:26;;;;;;;0.20;0.20;;;;;;;4.88;100.00;97547.09;5036366;28;20036;-75
2024/01/25 03:08:12;;;;;;;0.20;0.20;;;;;;;4.85;100.00;97550.97;5022339;28;20514;-74
2024/01/25 03:10:58;;;;;;;0.20;0.20;;;;;;;4.85;100.00;97542.19;5036695;28;20668;-74
2024/01/25 03:13:43;;;;;;;0.20;0.20;;;;;;;4.88;100.00;97539.97;5038217;28;20482;-76
2024/01/25 03:16:29;;;;;;;0.20;0.20;;;;;;;4.91;100.00;97549.41;5051339;28;20235;-75
2024/01/25 03:19:15;;;;;;;0.20;0.20;;;;;;;4.87;100.00;97550.78;5038497;28;20097;-75
2024/01/25 03:22:02;;;;;;;0.20;0.20;;;;;;;4.87;100.00;97548.13;5036644;28;20040;-74
2024/01/25 03:24:48;;;;;;;0.20;0.20;;;;;;;4.81;100.00;97552.31;5036684;28;20061;-73
2024/01/25 03:27:33;;;;;;;0.20;0.20;;;;;;;4.81;100.00;97560.28;5038776;28;20375;-73
2024/01/25 03:30:19;;;;;;;0.20;0.20;;;;;;;4.81;100.00;97539.06;5037320;28;20135;-73
2024/01/25 03:33:05;;;;;;;0.20;0.20;;;;;;;4.79;100.00;97542.94;5036020;28;20450;-72
2024/01/25 03:35:51;;;;;;;0.25;0.25;;;;;;;4.79;100.00;97538.44;5034596;28;20096;-74
2024/01/25 03:38:37;;;;;;;0.20;0.20;;;;;;;4.69;100.00;97528.13;5039431;28;20137;-73
2024/01/25 03:41:23;;;;;;;0.15;0.15;;;;;;;4.67;100.00;97532.81;5038234;28;20084;-73
2024/01/25 03:44:09;;;;;;;0.20;0.20;;;;;;;4.64;100.00;97530.50;5035835;28;20511;-72
2024/01/25 03:46:55;;;;;;;0.20;0.20;;;;;;;4.67;100.00;97530.16;5036300;28;20485;-73
2024/01/25 03:49:41;;;;;;;0.20;0.20;;;;;;;4.69;100.00;97536.09;5037129;28;20059;-76
2024/01/25 03:52:29;;;;;;;0.20;0.20;;;;;;;4.66;100.00;97531.13;5037893;28;20512;-76
2024/01/25 03:55:15;;;;;;;0.20;0.20;;;;;;;4.65;100.00;97534.78;5039295;28;20036;-75
2024/01/25 03:58:01;;;;;;;0.20;0.20;;;;;;;4.72;100.00;97540.19;5037425;28;20719;-73
2024/01/25 04:00:47;;;;;;;0.20;0.20;;;;;;;4.73;100.00;97545.28;5033909;28;20320;-76
2024/01/25 04:03:33;;;;;;;0.20;0.20;;;;;;;4.71;100.00;97543.84;5036896;28;20068;-75
2024/01/25 04:06:19;;;;;;;0.10;0.10;;;;;;;4.66;100.00;97551.53;5034682;28;20114;-73
2024/01/25 04:09:05;;;;;;;0.20;0.20;;;;;;;4.60;100.00;97560.25;5035865;28;20620;-75
2024/01/25 04:11:51;;;;;;;0.20;0.20;;;;;;;4.55;100.00;97558.13;5038184;28;20119;-76
2024/01/25 04:14:37;;;;;;;0.20;0.20;;;;;;;4.48;100.00;97557.22;5035348;28;20082;-75
2024/01/25 04:17:22;;;;;;;0.20;0.20;;;;;;;4.48;100.00;97557.22;5034162;28;20036;-74
2024/01/25 04:20:09;;;;;;;0.20;0.20;;;;;;;4.49;100.00;97564.16;5032772;28;20086;-74
2024/01/25 04:22:55;;;;;;;0.20;0.20;;;;;;;4.48;100.00;97567.81;5035381;28;20505;-75
2024/01/25 04:25:41;;;;;;;0.20;0.20;;;;;;;4.49;100.00;97577.41;5034019;28;20154;-77
2024/01/25 04:28:27;;;;;;;0.20;0.20;;;;;;;4.52;100.00;97568.28;5039545;28;20047;-76
2024/01/25 04:31:12;;;;;;;0.20;0.20;;;;;;;4.47;100.00;97588.19;5034896;28;20480;-74
2024/01/25 04:33:58;;;;;;;0.20;0.20;;;;;;;4.51;100.00;97577.22;5036863;28;20040;-74
2024/01/25 04:36:44;;;;;;;0.17;0.17;;;;;;;4.50;100.00;97584.34;5034857;28;20040;-76
2024/01/25 04:39:30;;;;;;;0.20;0.20;;;;;;;4.46;100.00;97580.44;5033224;28;20509;-75
2024/01/25 04:42:17;;;;;;;0.10;0.10;;;;;;;4.46;100.00;97583.09;5037531;28;20151;-75
2024/01/25 04:45:03;;;;;;;0.13;0.13;;;;;;;4.47;100.00;97587.38;5035340;28;20043;-74
2024/01/25 04:47:49;;;;;;;0.20;0.20;;;;;;;4.54;100.00;97604.19;5036499;28;20052;-74
2024/01/25 04:50:35;;;;;;;0.30;0.30;;;;;;;4.55;100.00;97592.59;5035768;28;20844;-75
2024/01/25 04:53:21;;;;;;;0.20;0.20;;;;;;;4.51;100.00;97599.25;5033870;28;20395;-75
2024/01/25 04:56:06;;;;;;;0.20;0.20;;;;;;;4.51;100.00;97599.25;5032990;28;20115;-74
2024/01/25 04:58:52;;;;;;;0.20;0.20;;;;;;;4.50;100.00;97612.69;5032694;28;20448;-74
2024/01/25 05:01:38;;;;;;;0.20;0.20;;;;;;;4.48;100.00;97616.34;5033709;28;20053;-75
2024/01/25 05:04:24;;;;;;;0.20;0.20;;;;;;;4.50;100.00;97613.50;5033643;28;20044;-75
2024/01/25 05:07:10;;;;;;;0.20;0.20;;;;;;;4.47;100.00;97609.41;5038460;28;20040;-75
2024/01/25 05:09:56;;;;;;;0.20;0.20;;;;;;;4.49;100.00;97614.50;5037098;28;20438;-75
2024/01/25 05:12:42;;;;;;;0.20;0.20;;;;;;;4.46;100.00;97618.38;5034573;28;20040;-73
2024/01/25 05:15:27;;;;;;;0.20;0.20;;;;;;;4.44;100.00;97606.31;5038284;28;20044;-76
2024/01/25 05:18:13;;;;;;;0.15;0.15;;;;;;;4.38;100.00;97604.38;5035828;28;20037;-74
2024/01/25 05:20:59;;;;;;;0.20;0.20;;;;;;;4.38;100.00;97621.09;5030128;28;20248;-75
2024/01/25 05:23:45;;;;;;;0.25;0.25;;;;;;;4.39;100.00;97611.31;5034245;28;20052;-77
2024/01/25 05:26:31;;;;;;;0.28;0.28;;;;;;;4.37;100.00;97613.34;5037051;28;20041;-74
2024/01/25 05:29:17;;;;;;;0.20;0.20;;;;;;;4.28;100.00;97609.94;5038996;28;20068;-74
2024/01/25 05:32:03;;;;;;;0.30;0.30;;;;;;;4.24;100.00;97618.41;5034724;28;20045;-76
2024/01/25 05:34:49;;;;;;;0.20;0.20;;;;;;;4.07;100.00;97610.63;5036450;28;20041;-74
2024/01/25 05:37:35;;;;;;;0.20;0.20;;;;;;;3.97;100.00;97617.16;5037978;28;20033;-74
2024/01/25 05:40:21;;;;;;;0.20;0.20;;;;;;;3.95;100.00;97613.88;5037736;28;20068;-73
2024/01/25 05:43:07;;;;;;;0.10;0.10;;;;;;;3.98;100.00;97626.78;5032804;28;20037;-75
2024/01/25 05:45:52;;;;;;;0.20;0.20;;;;;;;4.01;100.00;97637.81;5038245;28;20042;-74
2024/01/25 05:48:39;;;;;;;0.20;0.20;;;;;;;3.99;100.00;97636.38;5039065;28;20039;-74
2024/01/25 05:51:25;;;;;;;0.25;0.25;;;;;;;4.02;100.00;97641.28;5033466;28;20435;-75
2024/01/25 05:54:11;;;;;;;0.20;0.20;;;;;;;4.00;100.00;97649.44;5031010;28;20522;-74
2024/01/25 05:56:56;;;;;;;0.10;0.10;;;;;;;4.04;100.00;97650.69;5032516;28;20044;-73
2024/01/25 05:59:42;;;;;;;0.20;0.20;;;;;;;4.07;100.00;97650.34;5040308;28;20041;-73
2024/01/25 06:02:28;;;;;;;0.20;0.20;;;;;;;4.08;100.00;97652.00;5036861;28;20053;-76
2024/01/25 06:05:14;;;;;;;0.20;0.20;;;;;;;4.03;100.00;97656.19;5038034;28;20131;-76
2024/01/25 06:08:00;;;;;;;0.20;0.20;;;;;;;3.98;100.00;97664.69;5041547;28;20601;-74
2024/01/25 06:10:46;;;;;;;0.20;0.20;;;;;;;3.98;100.00;97664.69;5034849;28;20075;-77
2024/01/25 06:13:32;;;;;;;0.20;0.20;;;;;;;3.94;100.00;97662.53;5036298;28;20333;-75
2024/01/25 06:16:17;;;;;;;0.20;0.20;;;;;;;3.98;100.00;97667.31;5035102;28;20118;-75
2024/01/25 06:19:03;;;;;;;0.30;0.30;;;;;;;3.98;100.00;97675.28;5036240;28;20047;-76
2024/01/25 06:21:50;;;;;;;0.20;0.20;;;;;;;3.91;100.00;97669.84;5037514;28;20600;-76
2024/01/25 06:24:35;;;;;;;0.30;0.30;;;;;;;3.91;100.00;97675.16;5021776;28;20037;-75
2024/01/25 06:27:21;;;;;;;0.20;0.20;;;;;;;3.93;100.00;97682.91;5038618;28;20046;-75
2024/01/25 06:30:08;;;;;;;0.20;0.20;;;;;;;3.92;100.00;97676.78;5041567;28;20564;-75
2024/01/25 06:32:53;;;;;;;0.20;0.20;;;;;;;3.81;100.00;97677.22;5040897;28;20064;-74
2024/01/25 06:35:39;;;;;;;0.20;0.20;;;;;;;3.72;100.00;97672.94;5039998;28;20091;-76
2024/01/25 06:38:25;;;;;;;0.28;0.28;;;;;;;3.58;100.00;97665.75;5038068;28;20210;-76
2024/01/25 06:41:11;;;;;;;0.20;0.20;;;;;;;3.49;100.00;97678.22;5044364;28;20037;-74
2024/01/25 06:43:57;;;;;;;0.20;0.20;;;;;;;3.48;100.00;97675.75;5041220;28;20119;-76
2024/01/25 06:46:43;;;;;;;0.20;0.20;;;;;;;3.52;100.00;97685.84;5041912;28;20044;-76
2024/01/25 06:49:29;;;;;;;0.20;0.20;;;;;;;3.52;100.00;97685.00;5042274;28;20033;-75
2024/01/25 06:52:14;;;;;;;0.20;0.20;;;;;;;3.43;100.00;97688.69;5040326;28;20098;-74
2024/01/25 06:55:00;;;;;;;0.20;0.20;;;;;;;3.45;100.00;97700.75;5038953;28;20056;-76
2024/01/25 06:57:46;;;;;;;0.22;0.22;;;;;;;3.50;100.00;97705.50;5042101;28;20116;-73
2024/01/25 07:00:32;;;;;;;0.20;0.20;;;;;;;3.60;100.00;97704.31;5037874;28;20353;-73
2024/01/25 07:03:18;;;;;;;0.20;0.20;;;;;;;3.70;100.00;97697.97;5042979;28;20044;-74
2024/01/25 07:06:04;;;;;;;0.20;0.20;;;;;;;3.67;100.00;97701.78;5042123;28;20076;-74
2024/01/25 07:08:50;;;;;;;0.10;0.10;;;;;;;3.57;100.00;97693.22;5036396;28;20041;-74
2024/01/25 07:11:36;;;;;;;0.20;0.20;;;;;;;3.44;100.00;97691.16;5038125;28;20037;-74
2024/01/25 07:14:22;;;;;;;0.20;0.20;;;;;;;3.40;100.00;97689.84;5026609;28;20037;-75
2024/01/25 07:17:08;;;;;;;0.20;0.20;;;;;;;3.36;100.00;97693.84;5040345;28;20055;-74
2024/01/25 07:19:53;;;;;;;0.20;0.20;;;;;;;3.40;100.00;97700.44;5029876;28;20044;-73
2024/01/25 07:22:40;;;;;;;0.20;0.20;;;;;;;3.37;100.00;97698.16;5037330;28;20044;-74
2024/01/25 07:25:25;;;;;;;0.20;0.20;;;;;;;3.44;100.00;97711.50;5039260;28;20073;-76
2024/01/25 07:28:12;;;;;;;0.20;0.20;;;;;;;3.56;100.00;97708.28;5043249;28;20585;-74
2024/01/25 07:30:57;;;;;;;0.20;0.20;;;;;;;3.68;100.00;97708.72;5023193;28;20096;-75
2024/01/25 07:33:43;;;;;;;0.20;0.20;;;;;;;3.66;100.00;97705.44;5040795;28;20052;-74
2024/01/25 07:36:29;;;;;;;0.20;0.20;;;;;;;3.52;100.00;97699.06;5036868;28;20052;-74
2024/01/25 07:39:15;;;;;;;0.20;0.20;;;;;;;3.43;100.00;97705.41;5041616;28;20083;-74
2024/01/25 07:42:01;;;;;;;0.20;0.20;;;;;;;3.39;100.00;97703.25;5039570;28;20613;-73
2024/01/25 07:44:47;;;;;;;0.30;0.30;;;;;;;3.36;100.00;97701.78;5040515;28;20258;-74
2024/01/25 07:47:33;;;;;;;0.20;0.20;;;;;;;3.40;100.00;97707.56;5038299;28;20103;-74
2024/01/25 07:50:19;;;;;;;0.20;0.20;;;;;;;3.51;100.00;97708.00;5038495;28;20039;-75
2024/01/25 07:53:05;;;;;;;0.20;0.20;;;;;;;3.62;100.00;97698.84;5037360;28;20041;-72
2024/01/25 07:55:50;;;;;;;0.20;0.20;;;;;;;3.73;100.00;97703.72;5025803;28;20513;-74
2024/01/25 07:58:37;;;;;;;0.30;0.30;;;;;;;3.83;100.00;97695.56;5036598;28;20599;-73
2024/01/25 08:01:23;;;;;;;0.30;0.30;;;;;;;3.83;100.00;97685.81;5038297;28;20045;-78
2024/01/25 08:04:08;;;;;;;0.20;0.20;;;;;;;3.87;100.00;97697.69;5038214;28;20733;-74
2024/01/25 08:06:54;;;;;;;0.20;0.20;;;;;;;3.87;100.00;97696.84;5037112;28;20044;-76
2024/01/25 08:09:40;;;;;;;0.28;0.28;;;;;;;4.05;100.00;97694.75;5034997;28;20132;-76
2024/01/25 08:12:26;;;;;;;0.20;0.20;;;;;;;4.10;100.00;97702.97;5039459;28;20040;-77
2024/01/25 08:15:13;;;;;;;0.20;0.20;;;;;;;4.14;100.00;97703.47;5036860;28;20859;-74
2024/01/25 08:17:58;;;;;;;0.20;0.20;;;;;;;4.11;100.00;97701.97;5037989;28;20132;-75
2024/01/25 08:20:44;;;;;;;0.30;0.30;;;;;;;4.08;100.00;97702.34;5021273;28;21505;-74
2024/01/25 08:23:30;;;;;;;0.20;0.20;;;;;;;4.11;100.00;97707.25;5035544;28;20056;-74
2024/01/25 08:26:16;;;;;;;0.20;0.20;;;;;;;4.04;100.00;97714.28;5039597;28;20505;-74
2024/01/25 08:29:02;;;;;;;0.20;0.20;;;;;;;3.99;100.00;97713.19;5035787;28;20494;-76
2024/01/25 08:31:48;;;;;;;0.30;0.30;;;;;;;4.07;100.00;97723.72;5039967;28;20460;-74
2024/01/25 08:34:34;;;;;;;0.30;0.30;;;;;;;4.19;100.00;97722.28;5037149;28;20339;-76
2024/01/25 08:37:19;;;;;;;0.20;0.20;;;;;;;4.29;100.00;97719.41;5023159;28;20521;-75
2024/01/25 08:40:06;;;;;;;0.20;0.20;;;;;;;4.38;100.00;97721.00;5033765;28;20044;-74
2024/01/25 08:42:51;;;;;;;0.20;0.20;;;;;;;4.31;100.00;97728.81;5032258;28;20183;-77
2024/01/25 08:45:38;;;;;;;0.20;0.20;;;;;;;4.36;100.00;97733.59;5036116;28;20116;-74
2024/01/25 08:48:24;;;;;;;0.20;0.20;;;;;;;4.38;100.00;97735.06;5049217;28;20124;-77
2024/01/25 08:51:10;;;;;;;0.20;0.20;;;;;;;4.40;100.00;97734.88;5036017;28;20041;-76
2024/01/25 08:53:56;;;;;;;0.20;0.20;;;;;;;4.41;100.00;97720.63;5038278;28;20045;-76
2024/01/25 08:56:42;;;;;;;0.20;0.20;;;;;;;4.51;100.00;97729.13;5039145;28;20123;-73
2024/01/25 08:59:29;;;;;;;0.20;0.20;;;;;;;4.45;100.00;97728.03;5036793;28;20440;-75
2024/01/25 09:02:15;;;;;;;0.20;0.20;;;;;;;4.52;100.00;97725.50;5035449;28;20049;-77
2024/01/25 09:05:01;;;;;;;0.20;0.20;;;;;;;4.54;100.00;97712.88;5035325;28;20464;-74
2024/01/25 09:07:47;;;;;;;0.17;0.17;;;;;;;4.55;100.00;97722.47;5035458;28;20041;-75
2024/01/25 09:10:35;;;;;;;0.20;0.20;;;;;;;4.53;100.00;97721.84;5036380;28;20044;-74
2024/01/25 09:13:24;;;;;;;0.20;0.20;;;;;;;4.52;100.00;97722.03;5037772;28;20072;-76
2024/01/25 09:16:10;;;;;;;0.20;0.20;;;;;;;4.61;100.00;97737.69;5036709;28;20438;-77
2024/01/25 09:18:56;;;;;;;0.20;0.20;;;;;;;4.64;100.00;97732.00;5039086;28;20041;-74
2024/01/25 09:21:41;;;;;;;0.20;0.20;;;;;;;4.73;100.00;97730.09;5040773;28;20562;-74
2024/01/25 09:24:27;;;;;;;0.20;0.20;;;;;;;4.77;100.00;97726.09;5033601;28;20106;-77
2024/01/25 09:27:14;;;;;;;0.20;0.20;;;;;;;4.87;100.00;97728.47;5034760;28;20047;-75
2024/01/25 09:30:03;;;;;;;0.25;0.25;;;;;;;4.93;100.00;97728.59;5036649;28;20045;-74
2024/01/25 09:32:49;;;;;;;0.20;0.20;;;;;;;4.94;100.00;97740.84;5038859;28;20376;-74
2024/01/25 09:35:34;;;;;;;0.20;0.20;;;;;;;4.91;100.00;97737.75;5035634;28;20033;-76
2024/01/25 09:38:20;;;;;;;0.20;0.20;;;;;;;4.91;100.00;97740.38;5036282;28;20119;-74
2024/01/25 09:41:06;;;;;;;0.20;0.20;;;;;;;4.95;100.00;97745.13;5037464;28;20037;-75
2024/01/25 09:43:53;;;;;;;0.20;0.20;;;;;;;5.07;100.00;97748.19;5036816;28;20361;-75
2024/01/25 09:46:41;;;;;;;0.20;0.20;;;;;;;5.25;100.00;97750.47;5036174;28;20591;-77
2024/01/25 09:49:27;;;;;;;0.22;0.22;;;;;;;5.39;100.00;97746.16;5047771;28;20445;-74
2024/01/25 09:52:13;;;;;;;0.30;0.30;;;;;;;5.44;100.00;97744.56;5033622;28;20048;-74
2024/01/25 09:54:59;;;;;;;0.30;0.30;;;;;;;5.49;100.00;97752.00;5035767;28;20110;-74
2024/01/25 09:57:46;;;;;;;0.20;0.20;;;;;;;5.65;100.00;97750.97;5011276;28;20140;-76
2024/01/25 10:00:33;;;;;;;0.30;0.30;;;;;;;5.53;100.00;97747.97;5036312;28;20041;-74
2024/01/25 10:03:18;;;;;;;0.30;0.30;;;;;;;5.42;100.00;97743.13;5036703;28;20037;-74
2024/01/25 10:06:05;;;;;;;0.20;0.20;;;;;;;5.41;100.00;97752.91;5033981;28;20071;-76
2024/01/25 10:08:53;;;;;;;0.22;0.22;;;;;;;5.63;100.00;97760.97;5034382;28;20661;-77
2024/01/25 10:11:39;;;;;;;0.30;0.30;;;;;;;6.28;100.00;97750.25;5046497;28;20075;-77
2024/01/25 10:14:24;;;;;;;0.30;0.30;;;;;;;6.34;100.00;97761.97;5041072;28;20594;-74
2024/01/25 10:17:10;;;;;;;0.20;0.20;;;;;;;5.88;100.00;97771.06;5036826;28;20045;-73
2024/01/25 10:19:56;;;;;;;0.20;0.20;;;;;;;5.74;100.00;97768.44;5048165;28;20041;-75
2024/01/25 10:22:43;;;;;;;0.20;0.20;;;;;;;5.73;100.00;97775.59;5027374;28;20478;-75
2024/01/25 10:25:34;;;;;;;0.20;0.20;;;;;;;5.96;100.00;97775.47;5034973;28;20061;-75
2024/01/25 10:28:19;;;;;;;0.20;0.20;;;;;;;7.16;100.00;97761.41;5034284;28;20039;-76
2024/01/25 10:31:06;;;;;;;0.30;0.30;;;;;;;8.35;100.00;97768.09;5036916;28;20460;-75
2024/01/25 10:33:55;;;;;;;0.20;0.20;;;;;;;9.19;100.00;97761.34;5033679;28;20033;-76
2024/01/25 10:36:42;;;;;;;0.35;0.35;;;;;;;9.62;100.00;97758.16;5034427;28;20135;-75
2024/01/25 10:39:30;;;;;;;0.20;0.20;;;;;;;8.92;100.00;97768.53;5035704;28;20518;-75
2024/01/25 10:42:15;;;;;;;0.20;0.20;;;;;;;9.67;100.00;97774.38;5032180;28;20041;-76
2024/01/25 10:45:01;;;;;;;0.20;0.20;;;;;;;9.47;100.00;97769.09;5033691;28;20510;-74
2024/01/25 10:47:50;;;;;;;0.20;0.20;;;;;;;9.39;100.00;97769.31;5036694;28;20047;-76
2024/01/25 10:50:36;;;;;;;0.20;0.20;;;;;;;10.07;100.00;97780.41;5034933;28;20040;-77
2024/01/25 10:53:24;;;;;;;0.25;0.20;;;;;;;10.41;100.00;97779.19;5035886;28;20091;-78
2024/01/25 10:56:11;;;;;;;0.30;0.30;;;;;;;11.15;100.00;97774.97;5035236;28;20053;-76
2024/01/25 10:58:57;;;;;;;0.20;0.20;;;;;;;11.50;100.00;97774.41;5036477;28;20050;-75
2024/01/25 11:01:47;;;;;;;0.20;0.20;;;;;;;11.43;100.00;97769.91;5035787;28;20118;-74
2024/01/25 11:04:33;;;;;;;0.30;0.30;;;;;;;10.78;100.00;97757.97;5038362;28;20033;-73
2024/01/25 11:07:19;;;;;;;0.22;0.22;;;;;;;9.76;100.00;97752.56;5038832;28;20110;-74
2024/01/25 11:10:05;;;;;;;0.22;0.22;;;;;;;9.85;100.00;97739.75;5034543;28;20047;-77
2024/01/25 11:12:52;;;;;;;0.20;0.20;;;;;;;10.19;100.00;97722.50;5037602;28;20320;-76
2024/01/25 11:15:38;;;;;;;0.20;0.20;;;;;;;10.45;100.00;97724.22;5038553;28;20431;-76
2024/01/25 11:18:27;;;;;;;0.20;0.20;;;;;;;10.21;100.00;97725.81;5021216;28;20067;-74
2024/01/25 11:21:24;;;;;;;0.28;0.28;;;;;;;9.84;100.00;97723.94;5036877;28;20080;-74
2024/01/25 11:24:21;;;;;;;0.20;0.20;;;;;;;9.46;100.00;97724.69;5039364;28;20518;-77
2024/01/25 11:27:10;;;;;;;0.20;0.20;;;;;;;9.26;100.00;97722.09;5038366;28;20119;-76
2024/01/25 11:29:56;;;;;;;0.25;0.25;;;;;;;9.15;100.00;97723.53;5041966;28;20471;-76
2024/01/25 11:32:42;;;;;;;0.20;0.20;;;;;;;9.10;100.00;97718.00;5038661;28;20349;-74
2024/01/25 11:35:28;;;;;;;0.20;0.20;;;;;;;8.91;100.00;97708.19;5036136;28;20045;-76
2024/01/25 11:38:14;;;;;;;0.20;0.20;;;;;;;8.76;100.00;97710.25;5037080;28;20434;-73
2024/01/25 11:41:00;;;;;;;0.30;0.30;;;;;;;9.50;100.00;97707.22;5039987;28;20867;-76
2024/01/25 11:43:49;;;;;;;0.30;0.30;;;;;;;10.00;100.00;97702.06;5038420;28;20524;-74
2024/01/25 11:46:35;;;;;;;0.30;0.30;;;;;;;10.33;100.00;97702.69;5036787;28;20569;-76
2024/01/25 11:49:24;;;;;;;0.20;0.20;;;;;;;11.42;100.00;97697.78;5041554;28;20040;-73
2024/01/25 11:52:10;;;;;;;0.30;0.30;;;;;;;12.31;98.59;97703.50;5039086;28;20430;-74
2024/01/25 11:54:59;;;;;;;0.22;0.22;;;;;;;13.25;89.16;97696.38;5037365;28;20076;-76
2024/01/25 11:57:45;;;;;;;0.20;0.20;;;;;;;14.44;84.47;97691.97;5034342;28;20040;-75
2024/01/25 12:00:31;;;;;;;0.30;0.30;;;;;;;15.28;84.85;97670.41;5007342;28;20043;-75
2024/01/25 12:03:18;;;;;;;0.20;0.20;;;;;;;15.52;75.81;97670.97;5036480;28;20410;-75
2024/01/25 12:06:05;;;;;;;0.20;0.20;;;;;;;15.24;84.05;97674.66;5033902;28;20041;-74
2024/01/25 12:08:51;;;;;;;0.20;0.20;;;;;;;13.98;79.20;97678.75;5035442;28;20522;-74
2024/01/25 12:11:40;;;;;;;0.20;0.20;;;;;;;13.62;90.82;97678.06;5036953;28;20342;-76
2024/01/25 12:14:27;;;;;;;0.20;0.20;;;;;;;13.79;81.89;97673.56;5036144;28;20070;-77
2024/01/25 12:17:13;;;;;;;0.30;0.30;;;;;;;14.79;85.49;97666.72;5037978;28;20653;-76
2024/01/25 12:20:00;;;;;;;0.30;0.30;;;;;;;15.20;85.11;97668.13;5024877;28;20067;-74
2024/01/25 12:22:48;;;;;;;0.20;0.20;;;;;;;14.52;82.18;97663.03;5037644;28;20197;-76
2024/01/25 12:25:39;;;;;;;0.20;0.20;;;;;;;13.76;87.98;97676.72;5020198;28;20124;-74
2024/01/25 12:28:28;;;;;;;0.20;0.20;;;;;;;13.16;89.63;97662.81;5037073;28;20072;-76
2024/01/25 12:31:13;;;;;;;0.30;0.30;;;;;;;12.58;93.87;97648.31;5022036;28;20259;-74
2024/01/25 12:34:00;;;;;;;0.20;0.20;;;;;;;12.74;93.02;97644.94;5036180;28;20612;-78
2024/01/25 12:36:46;;;;;;;0.20;0.20;;;;;;;12.19;88.88;97647.09;5048444;28;20049;-76
2024/01/25 12:39:32;;;;;;;0.20;0.20;;;;;;;11.78;94.10;97656.72;5037908;28;20833;-75
2024/01/25 12:42:18;;;;;;;0.22;0.20;;;;;;;11.95;95.13;97652.38;5035995;28;20123;-75
2024/01/25 12:45:04;;;;;;;0.17;0.17;;;;;;;12.34;96.12;97649.34;5036856;28;20139;-75
2024/01/25 12:47:50;;;;;;;0.10;0.10;;;;;;;11.94;93.84;97633.84;5037781;28;20136;-76
2024/01/25 12:50:37;;;;;;;0.10;0.10;;;;;;;11.62;97.75;97630.53;5039589;28;20103;-74
2024/01/25 12:53:23;;;;;;;0.20;0.20;;;;;;;10.90;100.00;97626.88;5022088;28;20074;-74
2024/01/25 12:56:09;;;;;;;0.20;0.20;;;;;;;10.43;100.00;97631.84;5033351;28;20666;-76
2024/01/25 12:58:54;;;;;;;0.20;0.20;;;;;;;10.43;100.00;97616.59;5028714;28;20540;-77
2024/01/25 13:01:40;;;;;;;0.20;0.20;;;;;;;10.42;100.00;97619.47;5035613;28;20526;-73
2024/01/25 13:04:27;;;;;;;0.20;0.20;;;;;;;10.61;100.00;97629.19;5037587;28;20040;-75